sensor_id;sensor_type;location;lat;lon;timestamp;temperature;humidity
4079;DHT22;2054;47.858;11.156;2023-07-29T02:45:44;16.80;99.90
4079;DHT22;2054;47.858;11.156;2023-07-29T02:48:12;16.80;99.90
4079;DHT22;2054;47.858;11.156;2023-07-29T02:50:39;16.90;99.90
4079;DHT22;2054;47.858;11.156;2023-07-29T02:53:07;16.90;99.90
4079;DHT22;2054;47.858;11.156;2023-07-29T02:55:34;16.90;99.90
4079;DHT22;2054;47.858;11.156;2023-07-29T02:58:01;17.00;99.90
4079;DHT22;2054;47.858;11.156;2023-07-29T03:00:31;17.10;99.90
4079;DHT22;2054;47.858;11.156;2023-07-29T03:02:59;17.20;99.90
4079;DHT22;2054;47.858;11.156;2023-07-29T03:05:28;17.20;99.90
4079;DHT22;2054;47.858;11.156;2023-07-29T03:07:55;17.20;99.90
4079;DHT22;2054;47.858;11.156;2023-07-29T03:10:22;17.20;99.90
4079;DHT22;2054;47.858;11.156;2023-07-29T03:12:49;17.20;99.90
4079;DHT22;2054;47.858;11.156;2023-07-29T03:15:16;17.20;99.90
4079;DHT22;2054;47.858;11.156;2023-07-29T03:17:43;17.30;99.90
4079;DHT22;2054;47.858;11.156;2023-07-29T03:20:12;17.30;99.90
4079;DHT22;2054;47.858;11.156;2023-07-29T03:22:38;17.30;99.90
4079;DHT22;2054;47.858;11.156;2023-07-29T03:30:04;17.20;99.90
4079;DHT22;2054;47.858;11.156;2023-07-29T03:32:31;17.10;99.90
4079;DHT22;2054;47.858;11.156;2023-07-29T03:34:58;17.10;99.90
4079;DHT22;2054;47.858;11.156;2023-07-29T03:37:26;17.10;99.90
4079;DHT22;2054;47.858;11.156;2023-07-29T03:39:54;17.10;99.90
4079;DHT22;2054;47.858;11.156;2023-07-29T03:42:23;17.00;99.90
4079;DHT22;2054;47.858;11.156;2023-07-29T03:44:50;16.90;99.90
4079;DHT22;2054;47.858;11.156;2023-07-29T03:47:17;17.00;99.90
4079;DHT22;2054;47.858;11.156;2023-07-29T03:49:44;17.00;99.90
4079;DHT22;2054;47.858;11.156;2023-07-29T03:52:11;17.00;99.90
4079;DHT22;2054;47.858;11.156;2023-07-29T03:54:39;17.00;99.90
4079;DHT22;2054;47.858;11.156;2023-07-29T03:57:06;17.00;99.90
4079;DHT22;2054;47.858;11.156;2023-07-29T03:59:33;17.10;99.90
4079;DHT22;2054;47.858;11.156;2023-07-29T04:02:00;17.10;99.90
4079;DHT22;2054;47.858;11.156;2023-07-29T04:04:27;16.90;99.90
4079;DHT22;2054;47.858;11.156;2023-07-29T04:06:54;16.90;99.90
4079;DHT22;2054;47.858;11.156;2023-07-29T04:09:21;17.00;99.90
4079;DHT22;2054;47.858;11.156;2023-07-29T04:11:49;17.00;99.90
4079;DHT22;2054;47.858;11.156;2023-07-29T04:14:16;17.00;99.90
4079;DHT22;2054;47.858;11.156;2023-07-29T04:16:43;17.00;99.90
4079;DHT22;2054;47.858;11.156;2023-07-29T04:19:10;17.10;99.90
4079;DHT22;2054;47.858;11.156;2023-07-29T04:21:37;17.10;99.90
4079;DHT22;2054;47.858;11.156;2023-07-29T04:24:04;17.20;99.90
4079;DHT22;2054;47.858;11.156;2023-07-29T04:26:31;17.20;99.90
4079;DHT22;2054;47.858;11.156;2023-07-29T04:28:59;17.20;99.90
4079;DHT22;2054;47.858;11.156;2023-07-29T04:31:27;17.30;99.90
4079;DHT22;2054;47.858;11.156;2023-07-29T04:33:53;17.50;99.90
4079;DHT22;2054;47.858;11.156;2023-07-29T04:36:20;17.50;99.90
4079;DHT22;2054;47.858;11.156;2023-07-29T04:38:47;17.60;99.90
4079;DHT22;2054;47.858;11.156;2023-07-29T04:43:42;17.60;99.90
4079;DHT22;2054;47.858;11.156;2023-07-29T04:46:11;17.80;99.90
4079;DHT22;2054;47.858;11.156;2023-07-29T04:48:38;17.80;99.90
4079;DHT22;2054;47.858;11.156;2023-07-29T04:51:06;17.80;99.90
4079;DHT22;2054;47.858;11.156;2023-07-29T04:53:33;18.00;99.90
4079;DHT22;2054;47.858;11.156;2023-07-29T04:56:02;18.10;99.90
4079;DHT22;2054;47.858;11.156;2023-07-29T04:58:29;18.20;99.90
4079;DHT22;2054;47.858;11.156;2023-07-29T05:00:56;18.30;99.90
4079;DHT22;2054;47.858;11.156;2023-07-29T05:03:24;18.40;99.90
4079;DHT22;2054;47.858;11.156;2023-07-29T05:05:51;18.60;99.90
4079;DHT22;2054;47.858;11.156;2023-07-29T05:08:21;18.60;99.90
